Time;durP1;ratioP1;P1;durP2;ratioP2;P2;SDS_P1;SDS_P2;PMS_P1;PMS_P2;Temp;Humidity;BMP_temperature;BMP_pressure;BME280_temperature;BME280_humidity;BME280_pressure;Samples;Min_cycle;Max_cycle;Signal;HPM_P1;HPM_P2
2022/09/11 00:02:16;;;;;;;8.75;4.97;;;;;;;16.37;100.00;93040.38;5070878;28;20045;-75
2022/09/11 00:04:43;;;;;;;5.82;4.32;;;;;;;16.38;100.00;93036.00;5071069;28;20411;-75
2022/09/11 00:07:10;;;;;;;7.10;4.93;;;;;;;16.35;100.00;93036.47;5070717;28;20072;-75
2022/09/11 00:09:37;;;;;;;5.90;4.13;;;;;;;16.29;100.00;93038.25;5070975;28;20048;-76
2022/09/11 00:12:05;;;;;;;6.18;4.25;;;;;;;16.25;100.00;93037.22;5070929;28;20447;-76
2022/09/11 00:14:32;;;;;;;6.20;4.22;;;;;;;16.18;100.00;93042.59;5070673;28;20060;-75
2022/09/11 00:16:59;;;;;;;7.50;4.55;;;;;;;16.15;100.00;93040.47;5071032;28;20060;-75
2022/09/11 00:19:27;;;;;;;7.90;4.07;;;;;;;16.10;100.00;93037.88;5070421;28;20143;-75
2022/09/11 00:21:56;;;;;;;7.18;4.20;;;;;;;16.09;100.00;93037.09;5070511;28;20480;-75
2022/09/11 00:24:22;;;;;;;7.60;4.35;;;;;;;16.10;100.00;93036.06;5070446;28;20488;-76
2022/09/11 00:26:49;;;;;;;7.80;4.60;;;;;;;16.05;100.00;93040.44;5070785;28;20459;-76
2022/09/11 00:29:16;;;;;;;8.70;4.57;;;;;;;15.95;100.00;93033.34;5081202;28;20040;-75
2022/09/11 00:31:43;;;;;;;7.68;4.65;;;;;;;15.98;100.00;93049.16;5090157;28;20131;-75
2022/09/11 00:34:10;;;;;;;9.55;5.07;;;;;;;15.94;100.00;93044.75;5090427;28;20048;-75
2022/09/11 00:36:40;;;;;;;9.02;4.53;;;;;;;15.93;100.00;93061.31;5090935;28;20382;-75
2022/09/11 00:39:07;;;;;;;7.55;4.82;;;;;;;15.79;100.00;93037.59;5090623;28;20524;-75
2022/09/11 00:41:37;;;;;;;7.80;4.88;;;;;;;15.76;100.00;93041.47;5090521;28;20162;-75
2022/09/11 00:44:06;;;;;;;7.95;4.80;;;;;;;15.64;100.00;93039.00;5090451;28;20036;-75
2022/09/11 00:46:38;;;;;;;6.90;4.60;;;;;;;15.65;100.00;93043.19;5090602;28;20052;-75
2022/09/11 00:49:16;;;;;;;7.38;4.70;;;;;;;15.58;100.00;93040.00;5090326;28;20044;-75
2022/09/11 00:51:47;;;;;;;9.57;5.82;;;;;;;15.63;100.00;93046.00;5090240;28;20043;-76
2022/09/11 00:54:19;;;;;;;9.35;5.32;;;;;;;15.60;100.00;93040.53;5090555;28;20048;-75
2022/09/11 00:56:49;;;;;;;8.70;5.22;;;;;;;15.67;100.00;93040.34;5090190;28;20579;-75
2022/09/11 00:59:16;;;;;;;7.68;5.65;;;;;;;15.66;100.00;93046.53;5090098;28;20580;-74
2022/09/11 01:01:43;;;;;;;8.05;4.97;;;;;;;15.55;100.00;93038.69;5090346;28;20044;-74
2022/09/11 01:04:11;;;;;;;7.65;4.68;;;;;;;15.57;100.00;93046.19;5090290;28;20109;-74
2022/09/11 01:06:37;;;;;;;8.07;5.18;;;;;;;15.42;100.00;93033.91;5090283;28;20040;-74
2022/09/11 01:09:06;;;;;;;9.10;5.07;;;;;;;15.40;100.00;93036.72;5090499;28;20450;-74
2022/09/11 01:11:44;;;;;;;9.88;5.25;;;;;;;15.40;100.00;93039.31;5089589;28;20051;-74
2022/09/11 01:14:24;;;;;;;9.48;4.95;;;;;;;15.37;100.00;93034.63;5090042;28;20043;-74
2022/09/11 01:16:56;;;;;;;7.75;5.57;;;;;;;15.45;100.00;93052.31;5089886;28;20504;-74
2022/09/11 01:19:37;;;;;;;9.27;5.07;;;;;;;15.39;100.00;93047.31;5089840;28;20474;-73
2022/09/11 01:22:36;;;;;;;9.02;5.20;;;;;;;15.37;100.00;93050.16;5089940;28;20050;-74
2022/09/11 01:25:20;;;;;;;9.45;5.50;;;;;;;15.37;100.00;93055.34;5090051;28;20450;-74
2022/09/11 01:27:51;;;;;;;11.02;5.47;;;;;;;15.38;100.00;93054.31;5089673;28;20088;-75
2022/09/11 01:30:20;;;;;;;7.13;4.90;;;;;;;15.46;100.00;93053.09;5089615;28;20097;-75
2022/09/11 01:33:14;;;;;;;8.57;5.18;;;;;;;15.48;100.00;93054.41;5089350;28;20044;-75
2022/09/11 01:35:51;;;;;;;9.50;5.20;;;;;;;15.47;100.00;93049.47;5089777;28;20093;-75
2022/09/11 01:38:25;;;;;;;7.82;4.70;;;;;;;15.44;100.00;93042.19;5089846;28;20127;-75
2022/09/11 01:40:56;;;;;;;8.27;5.05;;;;;;;15.34;100.00;93032.53;5089292;28;20464;-75
2022/09/11 01:43:29;;;;;;;8.73;4.63;;;;;;;15.35;100.00;93040.06;5088876;28;20442;-75
2022/09/11 01:45:59;;;;;;;7.53;5.07;;;;;;;15.39;100.00;93040.34;5089251;28;20475;-75
2022/09/11 01:48:32;;;;;;;6.90;5.30;;;;;;;15.39;100.00;93044.72;5089338;28;20495;-75
2022/09/11 01:51:01;;;;;;;8.15;4.90;;;;;;;15.38;100.00;93041.38;5089494;28;20047;-75
2022/09/11 01:53:33;;;;;;;8.10;5.20;;;;;;;15.42;100.00;93041.66;5089372;28;20043;-75
2022/09/11 01:56:05;;;;;;;7.07;4.55;;;;;;;15.41;100.00;93030.50;5089475;28;20097;-74
2022/09/11 01:58:36;;;;;;;7.65;5.28;;;;;;;15.40;100.00;93035.94;5089002;28;20873;-75
2022/09/11 02:01:08;;;;;;;7.03;4.70;;;;;;;15.32;100.00;93014.66;5067148;28;20068;-74
2022/09/11 02:03:39;;;;;;;7.25;4.97;;;;;;;15.27;100.00;93022.34;5069015;28;20397;-74
2022/09/11 02:06:09;;;;;;;6.53;4.55;;;;;;;15.10;100.00;92997.34;5068753;28;20093;-75
2022/09/11 02:08:43;;;;;;;10.00;5.10;;;;;;;15.20;100.00;93012.22;5068834;28;20041;-75
2022/09/11 02:11:12;;;;;;;11.00;5.07;;;;;;;15.25;100.00;93013.28;5068928;28;20517;-75
2022/09/11 02:13:47;;;;;;;8.65;5.00;;;;;;;15.26;100.00;93020.00;5068623;28;20048;-75
2022/09/11 02:16:19;;;;;;;7.30;5.32;;;;;;;15.22;100.00;93023.09;5068800;28;20816;-75
2022/09/11 02:18:57;;;;;;;8.13;4.95;;;;;;;15.16;100.00;93018.88;5069055;28;20049;-75
2022/09/11 02:21:24;;;;;;;8.63;5.20;;;;;;;15.12;100.00;93017.00;5069106;28;20064;-75
2022/09/11 02:23:54;;;;;;;8.63;5.30;;;;;;;15.04;100.00;93013.84;5068483;28;20045;-75
2022/09/11 02:26:24;;;;;;;7.47;4.97;;;;;;;15.01;100.00;93016.13;5068582;28;20040;-75
2022/09/11 02:28:52;;;;;;;10.07;5.60;;;;;;;14.98;100.00;93016.59;5075556;28;20080;-75
2022/09/11 02:31:19;;;;;;;9.43;5.78;;;;;;;14.97;100.00;93015.84;5088638;28;20101;-74
2022/09/11 02:33:46;;;;;;;9.57;5.10;;;;;;;14.91;100.00;93009.81;5088874;28;20101;-74
2022/09/11 02:36:34;;;;;;;9.55;5.90;;;;;;;14.90;100.00;93008.25;5088668;28;20048;-75
2022/09/11 02:39:16;;;;;;;8.13;5.68;;;;;;;14.88;100.00;93006.94;5088545;28;20510;-75
2022/09/11 02:42:01;;;;;;;8.32;5.25;;;;;;;14.70;100.00;92977.75;5088934;28;20120;-74
2022/09/11 02:44:36;;;;;;;8.73;6.50;;;;;;;14.85;100.00;93012.59;5088552;28;20054;-75
2022/09/11 02:47:16;;;;;;;9.20;5.75;;;;;;;14.80;100.00;93008.13;5088876;28;20044;-75
2022/09/11 02:49:54;;;;;;;8.43;6.05;;;;;;;14.81;100.00;92999.34;5088625;28;20036;-75
2022/09/11 02:52:36;;;;;;;8.00;5.97;;;;;;;14.80;100.00;92997.78;5088712;28;20100;-75
2022/09/11 02:55:10;;;;;;;7.82;5.35;;;;;;;14.76;100.00;93005.25;5092326;28;20442;-75
2022/09/11 02:57:42;;;;;;;12.13;6.30;;;;;;;14.73;100.00;93005.72;5092886;28;20059;-75
2022/09/11 03:00:12;;;;;;;8.30;5.95;;;;;;;14.77;100.00;93008.63;5092289;28;20595;-75
2022/09/11 03:02:42;;;;;;;9.45;5.50;;;;;;;14.79;100.00;92999.59;5092479;28;20512;-75
2022/09/11 03:05:10;;;;;;;7.35;5.60;;;;;;;14.65;100.00;93006.13;5092311;28;20824;-75
2022/09/11 03:07:38;;;;;;;8.38;5.97;;;;;;;14.59;100.00;93009.66;5092438;28;20044;-75
2022/09/11 03:10:07;;;;;;;9.48;6.25;;;;;;;14.52;100.00;93004.66;5092773;28;20040;-75
2022/09/11 03:12:35;;;;;;;7.75;6.05;;;;;;;14.46;100.00;92996.06;5092649;28;20052;-75
2022/09/11 03:15:02;;;;;;;11.07;6.13;;;;;;;14.51;100.00;93006.47;5092490;28;20044;-75
2022/09/11 03:17:30;;;;;;;7.57;5.78;;;;;;;14.56;100.00;93003.97;5092404;28;20079;-74
2022/09/11 03:19:57;;;;;;;7.72;6.53;;;;;;;14.52;100.00;93000.28;5092314;28;20052;-75
2022/09/11 03:22:23;;;;;;;9.48;6.35;;;;;;;14.57;100.00;93008.09;5092415;28;20225;-74
2022/09/11 03:24:50;;;;;;;11.02;6.20;;;;;;;14.53;100.00;93001.84;5092183;28;20044;-74
2022/09/11 03:27:17;;;;;;;7.60;6.47;;;;;;;14.56;100.00;93008.34;5092220;28;20040;-74
2022/09/11 03:29:45;;;;;;;7.85;6.63;;;;;;;14.55;100.00;93009.34;5091165;28;20048;-75
2022/09/11 03:32:12;;;;;;;8.13;6.07;;;;;;;14.52;100.00;93017.56;5070445;28;20048;-75
2022/09/11 03:34:40;;;;;;;8.68;6.72;;;;;;;14.51;100.00;93010.84;5072081;28;20048;-75
2022/09/11 03:37:06;;;;;;;8.77;6.15;;;;;;;14.52;100.00;93017.56;5071910;28;20082;-76
2022/09/11 03:39:33;;;;;;;7.55;5.38;;;;;;;14.47;100.00;93014.91;5072505;28;20053;-76
2022/09/11 03:42:00;;;;;;;7.07;5.85;;;;;;;14.38;100.00;93015.34;5072151;28;20110;-76
2022/09/11 03:44:27;;;;;;;8.23;6.20;;;;;;;14.34;100.00;93013.47;5071954;28;20553;-75
2022/09/11 03:46:53;;;;;;;8.93;5.93;;;;;;;14.27;100.00;93014.41;5086885;28;20075;-75
2022/09/11 03:49:20;;;;;;;8.82;4.93;;;;;;;14.26;100.00;93012.84;5073838;28;20121;-76
2022/09/11 03:51:48;;;;;;;9.30;6.30;;;;;;;14.24;100.00;93016.69;5071819;28;20545;-76
2022/09/11 03:54:16;;;;;;;8.48;5.75;;;;;;;14.27;100.00;93017.00;5071835;28;20052;-74
2022/09/11 03:56:43;;;;;;;12.05;9.18;;;;;;;14.22;100.00;93023.91;5071527;28;20045;-75
2022/09/11 03:59:10;;;;;;;16.35;12.07;;;;;;;14.14;100.00;93025.06;5067824;28;20090;-75
2022/09/11 04:01:36;;;;;;;27.98;17.05;;;;;;;14.11;100.00;93025.53;5077084;28;20049;-75
2022/09/11 04:04:03;;;;;;;31.75;17.67;;;;;;;14.11;100.00;93025.53;5071573;28;20057;-74
2022/09/11 04:06:31;;;;;;;23.70;15.65;;;;;;;14.12;100.00;93019.38;5070802;28;20449;-75
2022/09/11 04:09:00;;;;;;;20.77;12.15;;;;;;;14.10;100.00;93026.56;5071664;28;20045;-75
2022/09/11 04:11:26;;;;;;;16.17;9.82;;;;;;;14.10;100.00;93023.97;5071371;28;20055;-75
2022/09/11 04:13:53;;;;;;;13.75;9.70;;;;;;;14.14;100.00;93022.50;5071837;28;20053;-75
2022/09/11 04:16:20;;;;;;;11.60;8.25;;;;;;;14.16;100.00;93023.03;5071201;28;20688;-74
2022/09/11 04:18:48;;;;;;;10.07;7.65;;;;;;;14.12;100.00;93014.97;5071324;28;20049;-74
2022/09/11 04:21:17;;;;;;;10.27;7.60;;;;;;;14.19;100.00;93019.19;5070970;28;20063;-74
2022/09/11 04:23:44;;;;;;;8.35;6.22;;;;;;;14.19;100.00;93019.19;5071476;28;20066;-73
2022/09/11 04:26:18;;;;;;;10.90;6.45;;;;;;;14.20;100.00;93021.53;5071084;28;20048;-73
2022/09/11 04:28:45;;;;;;;8.68;5.65;;;;;;;14.19;100.00;93022.56;5077732;28;20461;-74
2022/09/11 04:31:13;;;;;;;7.38;5.68;;;;;;;14.16;100.00;93017.88;5078163;28;20094;-74
2022/09/11 04:33:40;;;;;;;9.02;5.53;;;;;;;14.10;100.00;93016.22;5071111;28;20048;-74
2022/09/11 04:36:08;;;;;;;9.98;5.80;;;;;;;14.05;100.00;93010.97;5070931;28;20102;-74
2022/09/11 04:38:36;;;;;;;7.53;5.47;;;;;;;14.13;100.00;93032.03;5071112;28;20041;-74
2022/09/11 04:41:05;;;;;;;7.68;5.45;;;;;;;14.11;100.00;93028.91;5071160;28;20052;-75
2022/09/11 04:43:34;;;;;;;7.07;6.07;;;;;;;14.03;100.00;93017.16;5070926;28;20052;-75
2022/09/11 04:46:01;;;;;;;9.45;6.20;;;;;;;14.06;100.00;93028.84;5071454;28;20124;-74
2022/09/11 04:48:28;;;;;;;10.63;6.40;;;;;;;14.01;100.00;93023.59;5084252;28;20474;-74
2022/09/11 04:51:02;;;;;;;9.23;6.70;;;;;;;14.10;100.00;93031.72;5070644;28;20052;-74
2022/09/11 04:53:30;;;;;;;10.45;5.95;;;;;;;14.13;100.00;93032.03;5070393;28;20102;-75
2022/09/11 04:56:06;;;;;;;10.90;6.22;;;;;;;14.19;100.00;93039.84;5070838;28;20068;-74
2022/09/11 04:58:35;;;;;;;10.93;7.03;;;;;;;14.19;100.00;93034.69;5070251;28;20049;-74
2022/09/11 05:01:06;;;;;;;7.30;6.00;;;;;;;14.18;100.00;93028.75;5070528;28;20525;-74
2022/09/11 05:03:33;;;;;;;8.85;5.93;;;;;;;14.26;100.00;93032.75;5070426;28;20036;-74
2022/09/11 05:06:04;;;;;;;9.85;5.55;;;;;;;14.28;100.00;93038.44;5070666;28;20048;-74
2022/09/11 05:08:31;;;;;;;7.63;5.65;;;;;;;14.30;100.00;93039.78;5070357;28;20049;-74
2022/09/11 05:10:59;;;;;;;8.82;5.53;;;;;;;14.28;100.00;93039.25;5070488;28;20055;-74
2022/09/11 05:13:26;;;;;;;10.80;5.68;;;;;;;14.38;100.00;93036.00;5070118;28;20055;-74
2022/09/11 05:16:00;;;;;;;9.55;5.68;;;;;;;14.42;100.00;93038.91;5070010;28;20115;-74
2022/09/11 05:18:27;;;;;;;9.00;5.95;;;;;;;14.41;100.00;93034.75;5070538;28;20052;-74
2022/09/11 05:20:59;;;;;;;8.82;5.90;;;;;;;14.51;100.00;93042.66;5070275;28;20053;-74
2022/09/11 05:23:26;;;;;;;8.80;6.32;;;;;;;14.55;100.00;93042.97;5069913;28;20055;-75
2022/09/11 05:25:57;;;;;;;8.68;6.45;;;;;;;14.57;100.00;93038.31;5070488;28;20052;-75
2022/09/11 05:28:24;;;;;;;8.23;5.50;;;;;;;14.63;100.00;93042.53;5073803;28;20128;-75
2022/09/11 05:30:52;;;;;;;8.15;5.75;;;;;;;14.64;100.00;93023.44;5080187;28;20044;-75
2022/09/11 05:33:22;;;;;;;9.15;6.05;;;;;;;14.81;100.00;93032.97;5069587;28;20551;-74
2022/09/11 05:35:49;;;;;;;7.70;6.65;;;;;;;14.89;100.00;93024.78;5069623;28;20535;-74
2022/09/11 05:38:17;;;;;;;8.50;6.75;;;;;;;15.05;100.00;93032.75;5069974;28;20052;-74
2022/09/11 05:40:44;;;;;;;9.00;6.18;;;;;;;15.14;100.00;93041.63;5067329;28;20048;-74
2022/09/11 05:43:13;;;;;;;8.27;5.90;;;;;;;15.26;100.00;93038.13;5069498;28;20518;-75
2022/09/11 05:45:40;;;;;;;10.05;6.18;;;;;;;15.39;100.00;93039.53;5069765;28;20499;-75
2022/09/11 05:48:07;;;;;;;8.25;6.05;;;;;;;15.42;100.00;93019.13;5069847;28;20049;-74
2022/09/11 05:50:35;;;;;;;10.18;6.85;;;;;;;15.40;100.00;93000.50;5069605;28;20072;-74
2022/09/11 05:53:02;;;;;;;8.57;5.93;;;;;;;15.71;100.00;93026.66;5069437;28;20696;-75
2022/09/11 05:55:29;;;;;;;10.30;6.85;;;;;;;15.82;100.00;93017.16;5069436;28;20049;-75
2022/09/11 05:57:55;;;;;;;13.07;6.63;;;;;;;16.00;100.00;93028.19;5069696;28;20044;-74
2022/09/11 06:00:22;;;;;;;14.65;8.48;;;;;;;16.12;100.00;93028.81;5069385;28;20496;-74
2022/09/11 06:02:49;;;;;;;15.15;8.73;;;;;;;16.27;100.00;93029.94;5069165;28;20044;-75
2022/09/11 06:05:16;;;;;;;25.13;13.65;;;;;;;16.45;100.00;93033.16;5069692;28;20052;-74
2022/09/11 06:07:44;;;;;;;22.70;12.68;;;;;;;16.60;100.00;93032.47;5069264;28;20037;-74
2022/09/11 06:10:11;;;;;;;25.25;13.52;;;;;;;16.74;100.00;93028.41;5069501;28;20102;-75
2022/09/11 06:12:38;;;;;;;26.98;13.88;;;;;;;16.92;100.00;93037.56;5072945;28;20043;-75
2022/09/11 06:15:06;;;;;;;23.63;12.40;;;;;;;17.06;100.00;93039.72;5079520;28;20044;-76
2022/09/11 06:17:32;;;;;;;21.30;11.10;;;;;;;17.16;100.00;93031.97;5079161;28;20048;-75
2022/09/11 06:19:59;;;;;;;19.92;12.02;;;;;;;17.36;100.00;93041.63;5067276;28;20060;-75
2022/09/11 06:22:28;;;;;;;18.00;11.98;;;;;;;17.56;100.00;93047.13;5069352;28;20052;-75
2022/09/11 06:24:56;;;;;;;16.90;10.93;;;;;;;17.66;100.00;93033.38;5068852;28;20040;-75
2022/09/11 06:27:23;;;;;;;19.33;12.68;;;;;;;17.92;100.00;93044.59;5068961;28;20090;-75
2022/09/11 06:29:50;;;;;;;22.70;12.48;;;;;;;18.05;100.00;93034.72;5082158;28;20052;-75
2022/09/11 06:32:18;;;;;;;25.33;14.57;;;;;;;18.09;100.00;93033.94;5068837;28;20056;-75
2022/09/11 06:34:45;;;;;;;17.80;11.82;;;;;;;18.21;100.00;93046.69;5069075;28;20052;-75
2022/09/11 06:37:12;;;;;;;24.83;13.10;;;;;;;18.30;100.00;93049.53;5068628;28;20048;-75
2022/09/11 06:39:39;;;;;;;19.02;11.50;;;;;;;18.56;100.00;93057.28;5069146;28;20094;-75
2022/09/11 06:42:07;;;;;;;14.00;10.18;;;;;;;18.26;100.00;93062.28;5068965;28;20089;-75
2022/09/11 06:44:36;;;;;;;20.35;10.75;;;;;;;18.33;100.00;93064.59;5068463;28;20492;-75
2022/09/11 06:47:04;;;;;;;13.75;9.70;;;;;;;18.40;100.00;93059.16;5068606;28;20385;-75
2022/09/11 06:49:31;;;;;;;14.30;10.27;;;;;;;18.52;100.00;93061.47;5068517;28;20492;-75
2022/09/11 06:51:58;;;;;;;16.70;11.07;;;;;;;18.48;100.00;93063.84;5083208;28;20040;-75
2022/09/11 06:54:24;;;;;;;13.95;10.48;;;;;;;18.38;100.00;93027.44;5088726;28;20063;-75
2022/09/11 06:56:51;;;;;;;13.45;9.35;;;;;;;18.76;100.00;93051.28;5078308;28;20094;-75
2022/09/11 06:59:22;;;;;;;14.38;10.13;;;;;;;19.00;100.00;93055.91;5088049;28;20052;-75
2022/09/11 07:01:50;;;;;;;12.45;9.63;;;;;;;19.12;100.00;93067.84;5088406;28;20478;-75
2022/09/11 07:04:17;;;;;;;9.93;7.95;;;;;;;19.08;100.00;93070.22;5089359;28;20055;-75
2022/09/11 07:06:43;;;;;;;11.15;7.78;;;;;;;19.16;100.00;93069.66;5088837;28;20051;-75
2022/09/11 07:09:12;;;;;;;8.60;7.70;;;;;;;19.33;100.00;93079.75;5088508;28;20117;-75
2022/09/11 07:11:42;;;;;;;8.48;7.38;;;;;;;19.23;100.00;93072.78;5088352;28;20089;-75
2022/09/11 07:14:09;;;;;;;10.23;7.90;;;;;;;19.37;100.00;93056.56;5088356;28;20039;-75
2022/09/11 07:16:37;;;;;;;12.10;8.10;;;;;;;19.38;99.15;93080.78;5083113;28;20040;-76
2022/09/11 07:19:04;;;;;;;9.93;7.97;;;;;;;19.35;100.00;93082.09;5088362;28;20131;-75
2022/09/11 07:21:33;;;;;;;8.48;7.47;;;;;;;19.49;99.87;93077.84;5087689;28;20424;-75
2022/09/11 07:24:00;;;;;;;8.75;7.30;;;;;;;19.76;97.76;93078.47;5061047;28;20040;-75
2022/09/11 07:26:28;;;;;;;10.02;8.20;;;;;;;19.20;100.00;93081.09;5072669;28;20118;-75
2022/09/11 07:28:56;;;;;;;8.70;7.80;;;;;;;19.30;100.00;93082.88;5076036;28;20483;-75
2022/09/11 07:31:25;;;;;;;8.75;7.80;;;;;;;19.42;98.88;93069.56;5074710;28;20090;-75
2022/09/11 07:33:53;;;;;;;9.25;8.20;;;;;;;19.61;96.92;93082.75;5055168;28;20098;-75
2022/09/11 07:36:22;;;;;;;8.63;7.72;;;;;;;19.67;96.47;93075.66;5069111;28;20407;-76
2022/09/11 07:38:50;;;;;;;9.25;8.15;;;;;;;19.94;95.51;93064.03;5068091;28;20040;-75
2022/09/11 07:41:18;;;;;;;7.93;6.53;;;;;;;20.03;91.17;93078.09;5070377;28;20098;-76
2022/09/11 07:43:45;;;;;;;8.82;6.78;;;;;;;20.51;90.64;93073.28;5072084;28;20056;-75
2022/09/11 07:46:13;;;;;;;9.27;7.10;;;;;;;20.92;88.73;93061.69;5084296;28;20044;-76
2022/09/11 07:48:41;;;;;;;7.22;6.40;;;;;;;21.28;82.83;93076.16;5073352;28;20041;-76
2022/09/11 07:51:10;;;;;;;7.47;6.00;;;;;;;21.62;86.32;93077.84;5072176;28;20492;-76
2022/09/11 07:53:39;;;;;;;7.60;6.57;;;;;;;21.92;83.30;93070.63;5071517;28;20549;-75
2022/09/11 07:56:08;;;;;;;8.15;6.30;;;;;;;22.20;83.06;93075.97;5082784;28;20097;-75
2022/09/11 07:58:36;;;;;;;6.95;6.03;;;;;;;22.24;79.90;93076.97;5075034;28;20045;-75
2022/09/11 08:01:04;;;;;;;7.13;6.22;;;;;;;22.26;76.87;93074.84;5071811;28;20056;-75
2022/09/11 08:03:31;;;;;;;7.93;6.35;;;;;;;21.86;78.68;93059.47;5071213;28;20542;-76
2022/09/11 08:05:58;;;;;;;7.25;6.35;;;;;;;22.00;81.03;93064.00;5071599;28;20048;-75
2022/09/11 08:08:28;;;;;;;6.85;5.82;;;;;;;21.42;78.92;93060.59;5071744;28;20415;-75
2022/09/11 08:10:55;;;;;;;8.52;6.20;;;;;;;21.94;76.44;93072.97;5057604;28;20083;-75
2022/09/11 08:13:23;;;;;;;6.93;6.07;;;;;;;22.28;80.39;93062.22;5071365;28;20048;-75
2022/09/11 08:15:50;;;;;;;6.50;5.55;;;;;;;22.16;74.03;93077.59;5071146;28;20102;-75
2022/09/11 08:18:17;;;;;;;6.97;5.60;;;;;;;22.50;74.47;93052.22;5071538;28;20044;-75
2022/09/11 08:20:44;;;;;;;9.70;6.45;;;;;;;22.43;74.94;93063.06;5070975;28;20049;-75
2022/09/11 08:23:11;;;;;;;6.78;5.30;;;;;;;22.00;73.91;93058.75;5071384;28;20048;-75
2022/09/11 08:25:39;;;;;;;6.05;4.70;;;;;;;22.07;72.44;93059.16;5071322;28;20469;-75
2022/09/11 08:28:06;;;;;;;6.65;4.60;;;;;;;21.95;72.23;93061.44;5072347;28;20090;-75
2022/09/11 08:30:36;;;;;;;5.75;5.13;;;;;;;22.05;72.03;93057.91;5084060;28;20040;-75
2022/09/11 08:33:03;;;;;;;5.60;5.00;;;;;;;22.22;70.99;93060.75;5071344;28;20150;-75
2022/09/11 08:35:30;;;;;;;8.07;5.50;;;;;;;22.55;74.94;93060.78;5071005;28;20053;-75
2022/09/11 08:37:57;;;;;;;8.85;5.68;;;;;;;23.03;74.71;93052.84;5071219;28;20048;-75
2022/09/11 08:40:25;;;;;;;7.90;5.88;;;;;;;23.54;71.63;93053.72;5075209;28;20052;-75
2022/09/11 08:42:57;;;;;;;8.13;6.00;;;;;;;23.75;67.14;93059.28;5089389;28;20044;-75
2022/09/11 08:45:28;;;;;;;7.32;5.68;;;;;;;23.84;68.68;93051.47;5079881;28;20503;-75
2022/09/11 08:47:57;;;;;;;8.10;5.75;;;;;;;23.99;70.20;93052.22;5088370;28;20040;-75
2022/09/11 08:50:26;;;;;;;6.07;5.40;;;;;;;24.21;64.79;93053.31;5084942;28;20044;-76
2022/09/11 08:52:54;;;;;;;8.88;5.40;;;;;;;22.87;68.88;93045.28;5089741;28;20044;-77
2022/09/11 08:55:28;;;;;;;7.75;5.68;;;;;;;22.38;71.91;93044.81;5090148;28;20052;-75
2022/09/11 08:58:03;;;;;;;6.00;4.80;;;;;;;22.41;71.67;93034.56;5074346;28;20052;-75
2022/09/11 09:00:39;;;;;;;6.60;4.95;;;;;;;22.06;70.39;93041.94;5070573;28;20087;-75
2022/09/11 09:03:53;;;;;;;6.45;5.25;;;;;;;22.52;71.50;93031.75;5070250;28;20047;-76
2022/09/11 09:06:48;;;;;;;8.18;5.70;;;;;;;23.19;70.15;93035.78;4988556;28;20058;-75
2022/09/11 09:09:22;;;;;;;6.72;4.85;;;;;;;23.37;66.12;93025.47;5060106;28;20053;-75
2022/09/11 09:11:57;;;;;;;8.02;5.70;;;;;;;23.70;68.56;93027.94;5070060;28;20044;-77
2022/09/11 09:14:51;;;;;;;7.45;5.28;;;;;;;23.64;65.52;93034.34;5070327;28;20137;-76
2022/09/11 09:17:21;;;;;;;8.30;4.78;;;;;;;22.66;64.48;93011.66;5070127;28;20052;-76
2022/09/11 09:19:56;;;;;;;6.75;5.38;;;;;;;22.27;68.80;93023.28;5070086;28;20098;-75
2022/09/11 09:22:27;;;;;;;7.47;5.22;;;;;;;22.41;70.05;93003.16;5070056;28;20094;-75
2022/09/11 09:24:58;;;;;;;7.80;5.85;;;;;;;22.47;72.85;93006.47;5069866;28;20098;-75
2022/09/11 09:27:30;;;;;;;8.27;6.68;;;;;;;22.65;72.87;93015.34;5070204;28;20059;-75
2022/09/11 09:30:03;;;;;;;8.35;6.18;;;;;;;22.37;73.21;93012.66;5084278;28;20040;-75
2022/09/11 09:32:32;;;;;;;6.40;5.60;;;;;;;21.85;72.65;93010.84;5070024;28;20149;-75
2022/09/11 09:35:02;;;;;;;8.73;7.30;;;;;;;21.56;73.43;92997.94;5069875;28;20056;-76
2022/09/11 09:37:29;;;;;;;10.73;8.52;;;;;;;21.89;73.55;93008.44;5069749;28;20040;-76
2022/09/11 09:39:56;;;;;;;7.57;5.88;;;;;;;22.32;71.30;93015.38;5069811;28;20454;-75
2022/09/11 09:42:43;;;;;;;7.68;6.70;;;;;;;22.63;69.05;92995.75;5070028;28;20109;-76
2022/09/11 09:45:27;;;;;;;7.43;5.90;;;;;;;23.25;68.58;93004.22;5066543;28;20799;-75
2022/09/11 09:47:54;;;;;;;8.38;5.85;;;;;;;23.72;63.96;93015.31;5069549;28;20044;-76
2022/09/11 09:50:26;;;;;;;7.90;6.05;;;;;;;23.73;64.55;92990.63;5069532;28;20098;-75
2022/09/11 09:53:04;;;;;;;7.53;5.85;;;;;;;23.13;67.05;93015.22;5069625;28;20094;-75
2022/09/11 09:55:34;;;;;;;9.00;6.82;;;;;;;22.35;71.17;93004.31;5069323;28;20106;-76
2022/09/11 09:58:01;;;;;;;8.35;6.60;;;;;;;22.36;72.76;92999.84;5069396;28;20310;-75
2022/09/11 10:00:31;;;;;;;8.55;6.65;;;;;;;22.57;71.60;93002.16;5069449;28;20487;-76
2022/09/11 10:02:58;;;;;;;7.95;6.60;;;;;;;22.50;71.32;93000.63;5068830;28;20037;-76
2022/09/11 10:05:28;;;;;;;9.30;6.70;;;;;;;22.29;71.17;92995.00;5069071;28;20554;-75
2022/09/11 10:07:57;;;;;;;9.68;7.28;;;;;;;22.54;68.86;92998.25;5068959;28;20060;-75
2022/09/11 10:10:27;;;;;;;8.82;7.57;;;;;;;22.84;71.20;92990.91;5069170;28;20048;-75
2022/09/11 10:12:56;;;;;;;6.43;5.60;;;;;;;23.17;63.38;92988.13;5069143;28;20095;-76
2022/09/11 10:15:24;;;;;;;5.90;4.57;;;;;;;23.05;62.30;92980.00;5068920;28;20053;-75
2022/09/11 10:17:52;;;;;;;6.07;5.03;;;;;;;23.48;62.84;92984.13;5068767;28;20098;-75
2022/09/11 10:20:25;;;;;;;7.65;5.75;;;;;;;23.93;64.06;92982.59;5068972;28;20545;-75
2022/09/11 10:22:54;;;;;;;7.07;5.95;;;;;;;24.44;62.47;92985.03;5068718;28;20523;-75
2022/09/11 10:25:25;;;;;;;8.60;5.88;;;;;;;24.95;62.41;92986.31;5069187;28;20052;-75
2022/09/11 10:28:02;;;;;;;6.68;5.38;;;;;;;25.28;58.65;92981.75;5085409;28;20093;-75
2022/09/11 10:30:35;;;;;;;4.85;4.13;;;;;;;24.90;55.86;92985.69;5087844;28;20047;-76
2022/09/11 10:33:06;;;;;;;4.93;4.25;;;;;;;24.82;56.77;92982.72;5086995;28;20048;-76
2022/09/11 10:35:36;;;;;;;6.05;4.65;;;;;;;23.28;60.54;92980.81;5086856;28;20041;-76
2022/09/11 10:38:17;;;;;;;5.82;4.72;;;;;;;23.21;62.65;92977.84;5087035;28;20097;-75
2022/09/11 10:40:55;;;;;;;4.78;4.10;;;;;;;23.05;60.64;92961.69;5089244;28;20161;-76
2022/09/11 10:43:26;;;;;;;5.13;4.50;;;;;;;23.42;60.79;92974.81;5088937;28;20052;-76
2022/09/11 10:46:22;;;;;;;8.48;6.88;;;;;;;23.89;57.92;92964.81;5088961;28;20044;-76
2022/09/11 10:48:56;;;;;;;5.60;5.00;;;;;;;23.97;57.30;92973.81;5084699;28;20563;-75
2022/09/11 10:51:24;;;;;;;7.05;5.45;;;;;;;24.14;61.62;92952.19;5069705;28;20053;-75
2022/09/11 10:54:13;;;;;;;7.72;4.95;;;;;;;24.47;58.34;92960.78;5068783;28;20053;-75
2022/09/11 10:56:49;;;;;;;5.53;4.88;;;;;;;24.59;58.13;92955.75;5057503;28;20052;-76
2022/09/11 10:59:18;;;;;;;;;;;;;;;24.81;59.74;92962.78;5069283;28;20109;-76
2022/09/11 11:01:45;;;;;;;7.90;4.80;;;;;;;24.80;59.71;92947.31;5068503;28;20388;-76
2022/09/11 11:04:14;;;;;;;5.75;4.80;;;;;;;25.41;59.66;92951.13;5068648;28;20129;-76
2022/09/11 11:06:55;;;;;;;7.68;5.20;;;;;;;25.53;56.58;92946.03;5068564;28;20507;-76
2022/09/11 11:09:31;;;;;;;7.00;4.68;;;;;;;25.70;53.94;92918.97;5068401;28;20124;-76
2022/09/11 11:12:16;;;;;;;5.35;4.35;;;;;;;25.74;55.90;92937.53;5068551;28;20127;-75
2022/09/11 11:15:17;;;;;;;6.15;5.43;;;;;;;25.38;56.15;92938.59;5069612;28;20500;-76
2022/09/11 11:17:53;;;;;;;6.35;4.07;;;;;;;25.33;57.40;92927.16;5072570;28;20095;-75
2022/09/11 11:20:30;;;;;;;;;;;;;;;25.70;56.73;92928.72;5073224;28;20088;-75
2022/09/11 11:23:35;;;;;;;6.95;4.15;;;;;;;25.79;54.10;92928.69;5072421;28;19943;-75
2022/09/11 11:26:26;;;;;;;5.95;5.30;;;;;;;26.00;55.96;92924.31;5053529;28;20498;-75
2022/09/11 11:29:09;;;;;;;6.43;4.35;;;;;;;25.72;55.42;92918.66;5068405;28;20040;-75
2022/09/11 11:31:57;;;;;;;7.03;4.70;;;;;;;24.91;58.12;92911.06;5075957;28;20405;-75
2022/09/11 11:34:37;;;;;;;5.50;4.82;;;;;;;24.47;60.13;92911.69;5072208;28;20045;-75
2022/09/11 11:37:11;;;;;;;6.07;5.00;;;;;;;24.68;60.41;92919.03;5071884;28;20442;-75
2022/09/11 11:39:47;;;;;;;7.22;5.55;;;;;;;24.82;59.60;92914.44;5072226;28;20123;-76
2022/09/11 11:42:21;;;;;;;8.05;5.07;;;;;;;24.95;60.53;92909.38;5071951;28;20459;-75
2022/09/11 11:44:53;;;;;;;7.95;5.25;;;;;;;24.89;59.93;92913.19;5072245;28;20083;-75